createdAt,value
2019-03-20T00:00:08.120Z,0
2019-03-20T00:01:10.345Z,0
2019-03-20T00:02:08.286Z,0
2019-03-20T00:03:08.027Z,0
2019-03-20T00:04:07.990Z,0
2019-03-20T00:05:08.199Z,0
2019-03-20T00:06:08.170Z,0
2019-03-20T00:07:08.131Z,0
2019-03-20T00:08:08.107Z,0
2019-03-20T00:09:08.076Z,0
2019-03-20T00:10:08.041Z,0
2019-03-20T00:11:08.014Z,0
2019-03-20T00:12:07.982Z,0
2019-03-20T00:13:07.957Z,0
2019-03-20T00:14:07.924Z,0
2019-03-20T00:15:07.888Z,0
2019-03-20T00:16:07.857Z,0
2019-03-20T00:17:08.858Z,0
2019-03-20T00:18:07.799Z,0
2019-03-20T00:19:07.800Z,0
2019-03-20T00:20:07.760Z,0
2019-03-20T00:21:07.702Z,0
2019-03-20T00:22:07.671Z,0
2019-03-20T00:23:07.652Z,0
2019-03-20T00:24:07.617Z,0
2019-03-20T00:25:07.585Z,0
2019-03-20T00:26:07.555Z,0
2019-03-20T00:27:07.526Z,0
2019-03-20T00:28:07.505Z,0
2019-03-20T00:29:07.468Z,0
2019-03-20T00:30:07.471Z,0
2019-03-20T00:31:07.409Z,0
2019-03-20T00:32:07.139Z,0
2019-03-20T00:33:07.331Z,0
2019-03-20T00:34:07.308Z,0
2019-03-20T00:35:08.555Z,0
2019-03-20T00:36:07.248Z,0
2019-03-20T00:37:07.215Z,0
2019-03-20T00:38:07.188Z,0
2019-03-20T00:39:07.159Z,0
2019-03-20T00:40:07.290Z,0
2019-03-20T00:41:07.107Z,0
2019-03-20T00:42:07.116Z,0
2019-03-20T00:43:07.034Z,0
2019-03-20T00:44:07.004Z,0
2019-03-20T00:45:06.969Z,0
2019-03-20T00:46:06.942Z,0
2019-03-20T00:47:06.677Z,0
2019-03-20T00:48:06.949Z,0
2019-03-20T00:49:06.846Z,0
2019-03-20T00:50:06.852Z,0
2019-03-20T00:51:06.873Z,0
2019-03-20T00:52:06.751Z,0
2019-03-20T00:53:06.726Z,0
2019-03-20T00:54:06.703Z,0
2019-03-20T00:55:06.664Z,0
2019-03-20T00:56:06.628Z,0
2019-03-20T00:57:06.597Z,0
2019-03-20T00:58:06.570Z,0
2019-03-20T00:59:06.560Z,0
2019-03-20T01:00:06.562Z,0
2019-03-20T01:01:06.477Z,0
2019-03-20T01:02:06.452Z,0
2019-03-20T01:03:06.406Z,0
2019-03-20T01:04:06.391Z,0
2019-03-20T01:05:17.210Z,0
2019-03-20T01:06:06.321Z,0
2019-03-20T01:07:06.288Z,0
2019-03-20T01:08:06.274Z,0
2019-03-20T01:09:06.229Z,0
2019-03-20T01:10:06.207Z,0
2019-03-20T01:11:06.225Z,0
2019-03-20T01:12:05.957Z,0
2019-03-20T01:13:06.114Z,0
2019-03-20T01:14:06.069Z,0
2019-03-20T01:15:06.043Z,0
2019-03-20T01:16:06.008Z,0
2019-03-20T01:17:05.971Z,0
2019-03-20T01:18:05.957Z,0
2019-03-20T01:19:05.917Z,0
2019-03-20T01:20:05.883Z,0
2019-03-20T01:21:05.851Z,0
2019-03-20T01:22:05.883Z,0
2019-03-20T01:23:05.810Z,0
2019-03-20T01:24:05.761Z,0
2019-03-20T01:25:05.726Z,0
2019-03-20T01:26:05.696Z,0
2019-03-20T01:27:05.669Z,0
2019-03-20T01:28:05.641Z,0
2019-03-20T01:29:05.600Z,0
2019-03-20T01:30:05.576Z,0
2019-03-20T01:31:05.540Z,0
2019-03-20T01:32:05.515Z,0
2019-03-20T01:33:05.512Z,0
2019-03-20T01:34:05.460Z,0
2019-03-20T01:35:05.435Z,0
2019-03-20T01:36:05.471Z,0
2019-03-20T01:37:05.357Z,0
2019-03-20T01:38:05.385Z,0
2019-03-20T01:39:05.065Z,0
2019-03-20T01:40:05.260Z,0
2019-03-20T01:41:05.239Z,0
2019-03-20T01:42:05.209Z,0
2019-03-20T01:43:05.176Z,0
2019-03-20T01:44:05.142Z,0
2019-03-20T01:45:05.332Z,0
2019-03-20T01:46:05.095Z,0
2019-03-20T01:47:06.776Z,0
2019-03-20T01:48:05.036Z,0
2019-03-20T01:49:05.024Z,0
2019-03-20T01:50:05.096Z,0
2019-03-20T01:51:04.937Z,0
2019-03-20T01:52:04.908Z,0
2019-03-20T01:53:04.896Z,0
2019-03-20T01:54:04.845Z,0
2019-03-20T01:55:04.961Z,0
2019-03-20T01:56:06.356Z,0
2019-03-20T01:57:04.794Z,0
2019-03-20T01:58:04.721Z,0
2019-03-20T01:59:04.712Z,0
2019-03-20T02:00:04.680Z,0
2019-03-20T02:01:04.634Z,0
2019-03-20T02:02:04.608Z,0
2019-03-20T02:03:04.589Z,0
2019-03-20T02:04:04.541Z,0
2019-03-20T02:05:04.518Z,0
2019-03-20T02:06:04.484Z,0
2019-03-20T02:07:04.450Z,0
2019-03-20T02:08:04.428Z,0
2019-03-20T02:09:04.412Z,0
2019-03-20T02:10:04.368Z,0
2019-03-20T02:11:04.330Z,0
2019-03-20T02:12:04.303Z,0
2019-03-20T02:13:05.871Z,0
2019-03-20T02:14:04.257Z,0
2019-03-20T02:15:04.695Z,0
2019-03-20T02:16:04.221Z,0
2019-03-20T02:17:04.180Z,0
2019-03-20T02:18:04.157Z,0
2019-03-20T02:19:04.118Z,0
2019-03-20T02:20:04.086Z,0
2019-03-20T02:21:04.065Z,0
2019-03-20T02:22:04.055Z,0
2019-03-20T02:23:04.026Z,0
2019-03-20T02:24:04.002Z,0
2019-03-20T02:25:03.978Z,0
2019-03-20T02:26:03.956Z,0
2019-03-20T02:27:03.950Z,0
2019-03-20T02:28:03.908Z,0
2019-03-20T02:29:03.890Z,0
2019-03-20T02:30:03.879Z,0
2019-03-20T02:31:03.870Z,0
2019-03-20T02:32:03.850Z,0
2019-03-20T02:33:03.816Z,0
2019-03-20T02:34:03.788Z,0
2019-03-20T02:35:04.369Z,0
2019-03-20T02:36:03.490Z,0
2019-03-20T02:37:03.728Z,0
2019-03-20T02:38:03.780Z,0
2019-03-20T02:39:03.665Z,0
2019-03-20T02:40:03.628Z,0
2019-03-20T02:41:03.598Z,0
2019-03-20T02:42:03.599Z,0
2019-03-20T02:43:03.580Z,0
2019-03-20T02:44:03.517Z,0
2019-03-20T02:45:03.489Z,0
2019-03-20T02:46:03.490Z,0
2019-03-20T02:47:03.432Z,0
2019-03-20T02:48:03.407Z,0
2019-03-20T02:49:03.390Z,0
2019-03-20T02:50:03.125Z,0
2019-03-20T02:51:03.342Z,0
2019-03-20T02:52:06.549Z,0
2019-03-20T02:53:03.270Z,0
2019-03-20T02:54:03.258Z,0
2019-03-20T02:55:03.308Z,0
2019-03-20T02:56:03.295Z,0
2019-03-20T02:57:03.158Z,0
2019-03-20T02:58:02.903Z,0
2019-03-20T02:59:03.217Z,0
2019-03-20T03:00:03.173Z,0
2019-03-20T03:01:03.048Z,0
2019-03-20T03:02:03.024Z,0
2019-03-20T03:03:02.988Z,0
2019-03-20T03:04:02.960Z,0
2019-03-20T03:05:02.947Z,0
2019-03-20T03:06:14.345Z,0
2019-03-20T03:07:02.888Z,0
2019-03-20T03:08:02.868Z,0
2019-03-20T03:09:02.830Z,0
2019-03-20T03:10:02.796Z,0
2019-03-20T03:11:02.955Z,0
2019-03-20T03:12:02.801Z,0
2019-03-20T03:13:02.743Z,0
2019-03-20T03:14:02.531Z,0
2019-03-20T03:15:02.916Z,0
2019-03-20T03:16:02.729Z,0
2019-03-20T03:17:02.599Z,0
2019-03-20T03:18:02.577Z,0
2019-03-20T03:19:02.528Z,0
2019-03-20T03:20:02.819Z,0
2019-03-20T03:21:02.475Z,0
2019-03-20T03:22:02.453Z,0
2019-03-20T03:23:02.421Z,0
2019-03-20T03:24:02.418Z,0
2019-03-20T03:25:02.370Z,0
2019-03-20T03:26:02.372Z,0
2019-03-20T03:27:02.335Z,0
2019-03-20T03:28:02.282Z,0
2019-03-20T03:29:02.261Z,0
2019-03-20T03:30:02.274Z,0
2019-03-20T03:31:02.215Z,0
2019-03-20T03:32:02.180Z,0
2019-03-20T03:33:02.318Z,0
2019-03-20T03:34:02.122Z,0
2019-03-20T03:35:02.102Z,0
2019-03-20T03:36:02.064Z,0
2019-03-20T03:37:02.061Z,0
2019-03-20T03:38:01.769Z,0
2019-03-20T03:39:01.969Z,0
2019-03-20T03:40:01.978Z,0
2019-03-20T03:41:01.914Z,0
2019-03-20T03:42:01.934Z,0
2019-03-20T03:43:01.875Z,0
2019-03-20T03:44:01.846Z,0
2019-03-20T03:45:01.902Z,0
2019-03-20T03:46:01.824Z,0
2019-03-20T03:47:01.762Z,0
2019-03-20T03:48:01.730Z,0
2019-03-20T03:49:01.710Z,0
2019-03-20T03:50:01.680Z,0
2019-03-20T03:51:01.638Z,0
2019-03-20T03:52:01.603Z,0
2019-03-20T03:53:01.593Z,0
2019-03-20T03:54:01.580Z,0
2019-03-20T03:55:01.538Z,0
2019-03-20T03:56:01.498Z,0
2019-03-20T03:57:01.496Z,0
2019-03-20T03:58:01.466Z,0
2019-03-20T03:59:01.443Z,0
2019-03-20T04:00:01.484Z,0
2019-03-20T04:01:01.163Z,0
2019-03-20T04:02:01.331Z,0
2019-03-20T04:03:01.310Z,0
2019-03-20T04:04:01.286Z,0
2019-03-20T04:05:01.252Z,0
2019-03-20T04:06:01.222Z,0
2019-03-20T04:07:01.208Z,0
2019-03-20T04:08:01.174Z,0
2019-03-20T04:09:01.154Z,0
2019-03-20T04:10:00.877Z,0
2019-03-20T04:11:01.093Z,0
2019-03-20T04:12:01.052Z,0
2019-03-20T04:13:01.024Z,0
2019-03-20T04:14:00.760Z,0
2019-03-20T04:15:00.998Z,0
2019-03-20T04:16:00.943Z,0
2019-03-20T04:17:00.922Z,0
2019-03-20T04:18:00.902Z,0
2019-03-20T04:19:00.862Z,0
2019-03-20T04:20:00.869Z,0
2019-03-20T04:21:00.900Z,0
2019-03-20T04:22:00.796Z,0
2019-03-20T04:23:00.758Z,0
2019-03-20T04:24:00.477Z,0
2019-03-20T04:25:00.759Z,0
2019-03-20T04:26:00.665Z,0
2019-03-20T04:27:00.637Z,0
2019-03-20T04:28:00.631Z,0
2019-03-20T04:29:00.587Z,0
2019-03-20T04:30:00.556Z,0
2019-03-20T04:31:00.529Z,0
2019-03-20T04:32:00.502Z,0
2019-03-20T04:33:00.518Z,0
2019-03-20T04:34:02.508Z,0
2019-03-20T04:35:00.467Z,0
2019-03-20T04:36:00.391Z,0
2019-03-20T04:37:00.372Z,0
2019-03-20T04:38:00.326Z,0
2019-03-20T04:39:00.300Z,0
2019-03-20T04:40:00.445Z,0
2019-03-20T04:41:00.254Z,0
2019-03-20T04:42:00.234Z,0
2019-03-20T04:42:59.964Z,0
2019-03-20T04:44:00.158Z,0
2019-03-20T04:45:00.308Z,0
2019-03-20T04:46:00.105Z,0
2019-03-20T04:47:00.098Z,0
2019-03-20T04:48:00.053Z,0
2019-03-20T04:49:00.021Z,0
2019-03-20T04:49:59.989Z,0
2019-03-20T04:50:59.722Z,0
2019-03-20T04:51:59.932Z,0
2019-03-20T04:52:59.914Z,0
2019-03-20T04:53:59.887Z,0
2019-03-20T04:54:59.609Z,0
2019-03-20T04:55:59.819Z,0
2019-03-20T04:56:59.802Z,0
2019-03-20T04:57:59.767Z,0
2019-03-20T04:58:59.735Z,4
2019-03-20T04:59:59.705Z,4
2019-03-20T05:00:59.697Z,0
2019-03-20T05:01:59.417Z,4
2019-03-20T05:03:01.019Z,4
2019-03-20T05:03:59.598Z,4
2019-03-20T05:04:59.578Z,4
2019-03-20T05:05:59.563Z,8
2019-03-20T05:07:06.237Z,8
2019-03-20T05:07:59.492Z,8
2019-03-20T05:09:01.909Z,8
2019-03-20T05:09:59.443Z,12
2019-03-20T05:10:59.411Z,12
2019-03-20T05:11:59.382Z,16
2019-03-20T05:12:59.360Z,20
2019-03-20T05:13:59.329Z,24
2019-03-20T05:14:59.303Z,32
2019-03-20T05:15:59.279Z,40
2019-03-20T05:16:59.255Z,44
2019-03-20T05:17:59.225Z,52
2019-03-20T05:18:59.216Z,60
2019-03-20T05:19:59.166Z,72
2019-03-20T05:20:59.148Z,88
2019-03-20T05:21:59.113Z,96
2019-03-20T05:22:59.090Z,112
2019-03-20T05:23:59.067Z,132
2019-03-20T05:24:59.033Z,152
2019-03-20T05:25:59.001Z,176
2019-03-20T05:26:58.978Z,196
2019-03-20T05:27:58.719Z,224
2019-03-20T05:28:58.951Z,252
2019-03-20T05:29:58.902Z,280
2019-03-20T05:30:58.869Z,308
2019-03-20T05:31:58.840Z,344
2019-03-20T05:32:58.817Z,380
2019-03-20T05:33:58.798Z,420
2019-03-20T05:34:58.787Z,456
2019-03-20T05:35:58.730Z,500
2019-03-20T05:37:09.477Z,544
2019-03-20T05:37:58.676Z,588
2019-03-20T05:38:58.640Z,636
2019-03-20T05:39:58.623Z,688
2019-03-20T05:40:58.590Z,740
2019-03-20T05:41:58.563Z,796
2019-03-20T05:42:58.533Z,848
2019-03-20T05:43:58.507Z,908
2019-03-20T05:44:58.480Z,964
2019-03-20T05:46:00.346Z,1028
2019-03-20T05:46:58.432Z,1096
2019-03-20T05:47:58.395Z,1168
2019-03-20T05:48:58.404Z,1240
2019-03-20T05:49:58.350Z,1316
2019-03-20T05:50:58.318Z,1400
2019-03-20T05:51:58.296Z,1484
2019-03-20T05:52:58.264Z,1560
2019-03-20T05:53:58.237Z,1624
2019-03-20T05:54:58.211Z,1680
2019-03-20T05:55:58.190Z,1728
2019-03-20T05:56:58.159Z,1784
2019-03-20T05:57:58.188Z,1852
2019-03-20T05:58:58.103Z,1920
2019-03-20T05:59:58.076Z,1996
2019-03-20T06:00:58.051Z,2060
2019-03-20T06:01:58.022Z,2120
2019-03-20T06:02:57.989Z,2164
2019-03-20T06:03:57.972Z,2204
2019-03-20T06:04:57.944Z,2268
2019-03-20T06:05:57.917Z,2384
2019-03-20T06:06:57.899Z,2568
2019-03-20T06:07:57.874Z,2732
2019-03-20T06:08:57.846Z,2832
2019-03-20T06:09:57.812Z,2888
2019-03-20T06:10:57.789Z,2956
2019-03-20T06:11:57.768Z,3052
2019-03-20T06:12:57.753Z,3244
2019-03-20T06:13:57.697Z,3500
2019-03-20T06:14:57.672Z,3708
2019-03-20T06:15:57.644Z,3836
2019-03-20T06:16:57.614Z,3892
2019-03-20T06:17:57.582Z,3864
2019-03-20T06:18:57.552Z,3788
2019-03-20T06:19:57.535Z,3772
2019-03-20T06:20:57.504Z,3808
2019-03-20T06:21:57.241Z,3844
2019-03-20T06:22:57.455Z,3828
2019-03-20T06:23:57.437Z,3892
2019-03-20T06:24:57.406Z,4036
2019-03-20T06:25:58.738Z,4176
2019-03-20T06:26:57.348Z,4380
2019-03-20T06:27:57.663Z,4532
2019-03-20T06:28:57.308Z,4564
2019-03-20T06:29:57.036Z,4672
2019-03-20T06:30:57.282Z,4788
2019-03-20T06:31:57.221Z,4920
2019-03-20T06:32:56.955Z,5044
2019-03-20T06:33:57.657Z,5128
2019-03-20T06:34:57.141Z,5228
2019-03-20T06:35:57.118Z,5360
2019-03-20T06:36:57.092Z,5432
2019-03-20T06:37:57.061Z,5388
2019-03-20T06:38:57.037Z,5192
2019-03-20T06:39:58.206Z,5012
2019-03-20T06:40:56.994Z,5032
2019-03-20T06:41:56.977Z,5156
2019-03-20T06:42:57.829Z,5240
2019-03-20T06:43:56.923Z,5344
2019-03-20T06:44:56.886Z,5340
2019-03-20T06:45:56.864Z,5436
2019-03-20T06:46:56.837Z,5544
2019-03-20T06:47:56.811Z,5600
2019-03-20T06:48:56.803Z,5400
2019-03-20T06:49:56.756Z,5500
2019-03-20T06:50:56.737Z,5684
2019-03-20T06:51:56.725Z,5712
2019-03-20T06:52:56.697Z,5744
2019-03-20T06:53:56.992Z,5740
2019-03-20T06:54:56.644Z,5724
2019-03-20T06:55:56.627Z,5740
2019-03-20T06:56:56.589Z,5684
2019-03-20T06:57:56.565Z,5784
2019-03-20T06:58:56.543Z,6040
2019-03-20T06:59:56.520Z,6280
2019-03-20T07:00:56.506Z,6372
2019-03-20T07:01:56.480Z,6380
2019-03-20T07:02:56.451Z,6440
2019-03-20T07:03:56.421Z,6512
2019-03-20T07:04:56.399Z,6724
2019-03-20T07:05:56.367Z,6704
2019-03-20T07:06:56.348Z,6564
2019-03-20T07:07:56.331Z,6848
2019-03-20T07:08:56.295Z,7256
2019-03-20T07:09:56.279Z,7380
2019-03-20T07:10:56.257Z,6884
2019-03-20T07:11:56.096Z,6876
2019-03-20T07:12:55.974Z,7172
2019-03-20T07:13:57.751Z,7564
2019-03-20T07:14:56.567Z,7564
2019-03-20T07:15:56.907Z,7688
2019-03-20T07:16:57.108Z,7936
2019-03-20T07:17:56.086Z,8188
2019-03-20T07:18:56.074Z,8380
2019-03-20T07:19:56.047Z,8364
2019-03-20T07:20:56.039Z,8916
2019-03-20T07:21:56.021Z,9288
2019-03-20T07:22:55.983Z,9440
2019-03-20T07:23:55.959Z,9516
2019-03-20T07:24:55.949Z,9396
2019-03-20T07:25:55.920Z,9196
2019-03-20T07:26:55.907Z,9280
2019-03-20T07:27:55.924Z,9708
2019-03-20T07:28:55.639Z,10016
2019-03-20T07:29:55.656Z,10232
2019-03-20T07:30:55.322Z,10040
2019-03-20T07:31:55.784Z,9556
2019-03-20T07:32:55.760Z,8848
2019-03-20T07:33:55.507Z,8948
2019-03-20T07:34:55.712Z,9376
2019-03-20T07:35:55.697Z,9548
2019-03-20T07:36:55.708Z,9212
2019-03-20T07:38:03.192Z,9264
2019-03-20T07:38:55.619Z,9052
2019-03-20T07:39:55.592Z,9152
2019-03-20T07:40:55.660Z,9524
2019-03-20T07:41:55.550Z,10352
2019-03-20T07:42:55.588Z,11156
2019-03-20T07:43:55.519Z,11772
2019-03-20T07:44:55.488Z,12092
2019-03-20T07:45:55.468Z,11828
2019-03-20T07:46:56.413Z,11356
2019-03-20T07:47:55.423Z,11540
2019-03-20T07:48:55.406Z,12256
2019-03-20T07:49:55.429Z,13432
2019-03-20T07:50:55.112Z,14344
2019-03-20T07:51:55.332Z,15012
2019-03-20T07:52:55.306Z,15192
2019-03-20T07:53:55.300Z,15160
2019-03-20T07:54:56.977Z,15008
2019-03-20T07:55:55.246Z,14984
2019-03-20T07:56:56.421Z,14536
2019-03-20T07:57:55.199Z,14172
2019-03-20T07:58:55.170Z,13980
2019-03-20T07:59:55.169Z,13780
2019-03-20T08:00:55.288Z,12200
2019-03-20T08:01:55.170Z,11252
2019-03-20T08:02:55.103Z,10304
2019-03-20T08:03:55.096Z,10028
2019-03-20T08:04:55.578Z,10628
2019-03-20T08:05:55.915Z,11452
2019-03-20T08:06:54.776Z,12308
2019-03-20T08:07:54.988Z,12624
2019-03-20T08:08:54.989Z,13560
2019-03-20T08:09:55.009Z,14472
2019-03-20T08:10:54.933Z,14764
2019-03-20T08:11:54.913Z,14936
2019-03-20T08:12:54.890Z,15184
2019-03-20T08:13:54.878Z,15220
2019-03-20T08:14:54.853Z,14728
2019-03-20T08:15:54.965Z,14344
2019-03-20T08:16:54.825Z,14140
2019-03-20T08:17:54.571Z,13904
2019-03-20T08:18:55.349Z,13776
2019-03-20T08:19:54.754Z,13812
2019-03-20T08:20:54.757Z,13820
2019-03-20T08:21:54.497Z,14116
2019-03-20T08:22:54.725Z,14132
2019-03-20T08:23:54.456Z,13664
2019-03-20T08:24:55.752Z,13388
2019-03-20T08:25:54.714Z,13216
2019-03-20T08:26:54.638Z,12752
2019-03-20T08:27:54.625Z,13284
2019-03-20T08:28:54.598Z,13748
2019-03-20T08:29:54.615Z,14276
2019-03-20T08:30:54.558Z,14712
2019-03-20T08:31:54.538Z,15568
2019-03-20T08:32:54.526Z,15940
2019-03-20T08:33:54.310Z,16204
2019-03-20T08:34:54.473Z,16836
2019-03-20T08:35:54.482Z,17472
2019-03-20T08:36:54.444Z,17600
2019-03-20T08:37:54.443Z,17088
2019-03-20T08:38:54.413Z,16916
2019-03-20T08:39:54.452Z,17016
2019-03-20T08:40:54.392Z,16936
2019-03-20T08:41:54.348Z,16892
2019-03-20T08:42:54.338Z,16892
2019-03-20T08:43:54.329Z,16980
2019-03-20T08:44:54.296Z,18048
2019-03-20T08:45:54.267Z,18560
2019-03-20T08:46:54.012Z,19136
2019-03-20T08:47:54.241Z,19488
2019-03-20T08:48:55.546Z,19840
2019-03-20T08:49:54.193Z,20224
2019-03-20T08:50:54.176Z,20320
2019-03-20T08:51:54.154Z,20448
2019-03-20T08:52:53.905Z,20640
2019-03-20T08:53:56.280Z,21344
2019-03-20T08:54:54.212Z,20896
2019-03-20T08:55:54.086Z,20096
2019-03-20T08:56:54.000Z,19104
2019-03-20T08:57:54.079Z,19808
2019-03-20T08:58:54.016Z,20576
2019-03-20T08:59:54.005Z,19872
2019-03-20T09:00:53.971Z,19104
2019-03-20T09:01:53.953Z,19168
2019-03-20T09:02:53.953Z,18944
2019-03-20T09:03:53.911Z,18464
2019-03-20T09:04:53.889Z,18304
2019-03-20T09:05:53.918Z,18112
2019-03-20T09:06:53.853Z,18144
2019-03-20T09:07:54.829Z,18016
2019-03-20T09:08:53.830Z,17012
2019-03-20T09:09:55.561Z,15852
2019-03-20T09:10:53.789Z,14720
2019-03-20T09:11:53.758Z,13504
2019-03-20T09:12:53.744Z,12100
2019-03-20T09:13:53.720Z,12288
2019-03-20T09:14:54.162Z,13172
2019-03-20T09:15:53.676Z,14168
2019-03-20T09:16:53.662Z,15148
2019-03-20T09:17:53.648Z,16244
2019-03-20T09:18:53.622Z,16164
2019-03-20T09:19:54.115Z,15932
2019-03-20T09:20:54.064Z,16216
2019-03-20T09:21:53.571Z,15780
2019-03-20T09:22:53.555Z,15692
2019-03-20T09:23:53.530Z,15688
2019-03-20T09:24:53.511Z,15732
2019-03-20T09:25:53.483Z,16004
2019-03-20T09:26:53.467Z,16108
2019-03-20T09:27:53.442Z,15536
2019-03-20T09:28:53.426Z,14860
2019-03-20T09:29:53.401Z,14324
2019-03-20T09:30:53.389Z,14288
2019-03-20T09:31:53.369Z,14440
2019-03-20T09:32:53.458Z,14776
2019-03-20T09:33:53.621Z,14876
2019-03-20T09:34:53.312Z,14988
2019-03-20T09:35:53.300Z,15284
2019-03-20T09:36:53.256Z,16084
2019-03-20T09:37:59.269Z,17144
2019-03-20T09:38:53.224Z,18144
2019-03-20T09:39:53.213Z,18624
2019-03-20T09:40:53.191Z,18496
2019-03-20T09:41:53.166Z,17576
2019-03-20T09:42:53.158Z,16248
2019-03-20T09:43:53.131Z,15860
2019-03-20T09:44:53.113Z,14876
2019-03-20T09:45:53.083Z,14444
2019-03-20T09:46:53.070Z,14752
2019-03-20T09:47:53.055Z,15000
2019-03-20T09:48:53.039Z,15492
2019-03-20T09:49:52.801Z,15712
2019-03-20T09:50:54.278Z,15884
2019-03-20T09:51:52.985Z,16076
2019-03-20T09:52:54.882Z,16400
2019-03-20T09:53:52.960Z,16788
2019-03-20T09:54:52.934Z,16968
2019-03-20T09:55:52.927Z,17740
2019-03-20T09:56:52.897Z,18592
2019-03-20T09:57:52.993Z,18464
2019-03-20T09:58:52.868Z,17600
2019-03-20T09:59:53.159Z,16524
2019-03-20T10:00:52.832Z,15812
2019-03-20T10:01:52.806Z,14900
2019-03-20T10:02:52.792Z,15008
2019-03-20T10:03:52.543Z,15312
2019-03-20T10:04:53.959Z,15708
2019-03-20T10:05:52.762Z,16104
2019-03-20T10:06:52.725Z,16432
2019-03-20T10:07:52.707Z,16596
2019-03-20T10:09:02.023Z,16764
2019-03-20T10:09:52.679Z,16844
2019-03-20T10:10:52.655Z,16968
2019-03-20T10:11:52.633Z,17028
2019-03-20T10:12:52.630Z,16980
2019-03-20T10:13:52.626Z,16972
2019-03-20T10:14:52.590Z,16944
2019-03-20T10:15:52.433Z,16952
2019-03-20T10:16:52.561Z,16852
2019-03-20T10:17:52.557Z,16772
2019-03-20T10:18:52.520Z,16776
2019-03-20T10:19:52.505Z,16820
2019-03-20T10:20:52.488Z,17104
2019-03-20T10:21:52.468Z,17452
2019-03-20T10:22:52.463Z,18304
2019-03-20T10:23:52.437Z,18944
2019-03-20T10:24:52.420Z,19584
2019-03-20T10:25:52.441Z,19680
2019-03-20T10:26:52.412Z,19488
2019-03-20T10:27:54.405Z,19424
2019-03-20T10:28:52.363Z,19520
2019-03-20T10:29:52.346Z,19712
2019-03-20T10:30:52.340Z,20064
2019-03-20T10:31:52.314Z,20576
2019-03-20T10:32:52.300Z,21408
2019-03-20T10:33:52.391Z,22528
2019-03-20T10:34:52.269Z,23520
2019-03-20T10:35:57.406Z,24128
2019-03-20T10:36:52.236Z,24256
2019-03-20T10:37:52.226Z,24192
2019-03-20T10:38:53.655Z,24128
2019-03-20T10:39:52.182Z,23872
2019-03-20T10:40:52.168Z,23424
2019-03-20T10:41:52.147Z,23136
2019-03-20T10:42:52.174Z,23200
2019-03-20T10:43:54.708Z,24032
2019-03-20T10:44:52.102Z,24672
2019-03-20T10:45:52.092Z,25248
2019-03-20T10:46:52.097Z,25920
2019-03-20T10:47:55.127Z,25984
2019-03-20T10:48:53.259Z,25952
2019-03-20T10:49:52.040Z,26048
2019-03-20T10:50:52.008Z,26240
2019-03-20T10:51:52.008Z,26656
2019-03-20T10:52:51.982Z,26592
2019-03-20T10:53:51.962Z,25984
2019-03-20T10:54:51.962Z,25216
2019-03-20T10:55:54.295Z,24576
2019-03-20T10:56:51.925Z,24640
2019-03-20T10:57:51.947Z,24512
2019-03-20T10:58:51.905Z,24384
2019-03-20T10:59:51.892Z,24480
2019-03-20T11:00:51.888Z,24576
2019-03-20T11:01:51.900Z,25184
2019-03-20T11:02:51.870Z,25408
2019-03-20T11:03:51.873Z,26752
2019-03-20T11:04:51.875Z,27968
2019-03-20T11:05:51.840Z,28128
2019-03-20T11:06:51.837Z,27328
2019-03-20T11:07:51.905Z,26976
2019-03-20T11:08:51.818Z,27104
2019-03-20T11:09:51.932Z,27616
2019-03-20T11:10:51.811Z,27744
2019-03-20T11:11:51.827Z,27200
2019-03-20T11:12:51.793Z,27264
2019-03-20T11:13:51.741Z,27360
2019-03-20T11:14:51.733Z,27520
2019-03-20T11:15:51.739Z,26592
2019-03-20T11:16:51.741Z,26144
2019-03-20T11:17:51.717Z,25952
2019-03-20T11:18:53.326Z,26464
2019-03-20T11:19:51.685Z,27712
2019-03-20T11:20:53.577Z,28288
2019-03-20T11:21:51.625Z,28128
2019-03-20T11:22:51.612Z,28096
2019-03-20T11:23:51.603Z,27712
2019-03-20T11:24:51.587Z,27360
2019-03-20T11:25:51.574Z,26752
2019-03-20T11:26:51.551Z,26080
2019-03-20T11:27:51.643Z,25728
2019-03-20T11:28:51.524Z,25216
2019-03-20T11:29:51.516Z,25440
2019-03-20T11:30:51.566Z,25728
2019-03-20T11:31:51.478Z,25824
2019-03-20T11:32:51.562Z,25792
2019-03-20T11:33:51.477Z,26368
2019-03-20T11:34:51.440Z,26304
2019-03-20T11:35:51.425Z,26112
2019-03-20T11:36:51.420Z,25344
2019-03-20T11:37:51.416Z,25888
2019-03-20T11:38:51.374Z,26208
2019-03-20T11:39:52.685Z,25504
2019-03-20T11:40:51.350Z,26144
2019-03-20T11:41:51.352Z,27808
2019-03-20T11:42:51.317Z,28384
2019-03-20T11:43:51.313Z,28320
2019-03-20T11:44:51.293Z,28000
2019-03-20T11:45:51.278Z,26848
2019-03-20T11:46:51.260Z,27072
2019-03-20T11:47:51.263Z,27520
2019-03-20T11:48:51.234Z,27328
2019-03-20T11:49:51.223Z,26720
2019-03-20T11:50:51.207Z,26144
2019-03-20T11:51:51.192Z,25792
2019-03-20T11:52:51.189Z,26176
2019-03-20T11:53:51.171Z,26720
2019-03-20T11:54:51.150Z,27424
2019-03-20T11:55:51.158Z,27968
2019-03-20T11:56:51.131Z,28352
2019-03-20T11:57:50.708Z,28640
2019-03-20T11:58:51.129Z,28960
2019-03-20T11:59:50.951Z,29472
2019-03-20T12:00:51.093Z,29568
2019-03-20T12:01:50.984Z,29344
2019-03-20T12:02:50.727Z,28448
2019-03-20T12:03:50.600Z,26016
2019-03-20T12:04:50.796Z,26496
2019-03-20T12:05:51.038Z,27232
2019-03-20T12:06:51.035Z,26720
2019-03-20T12:07:51.082Z,26560
2019-03-20T12:08:51.007Z,26656
2019-03-20T12:09:52.148Z,25408
2019-03-20T12:10:50.970Z,23712
2019-03-20T12:11:53.323Z,22976
2019-03-20T12:12:50.936Z,23872
2019-03-20T12:13:50.897Z,25088
2019-03-20T12:14:50.691Z,27360
2019-03-20T12:15:50.393Z,29792
2019-03-20T12:16:50.894Z,30432
2019-03-20T12:17:50.856Z,28704
2019-03-20T12:18:50.843Z,25568
2019-03-20T12:19:52.254Z,26304
2019-03-20T12:20:50.907Z,27712
2019-03-20T12:21:50.785Z,27968
2019-03-20T12:22:50.777Z,26560
2019-03-20T12:23:50.825Z,24576
2019-03-20T12:24:50.765Z,23104
2019-03-20T12:25:50.822Z,21440
2019-03-20T12:26:50.714Z,20032
2019-03-20T12:27:50.702Z,20032
2019-03-20T12:28:50.700Z,20448
2019-03-20T12:29:50.672Z,20896
2019-03-20T12:30:51.859Z,21664
2019-03-20T12:31:50.730Z,22208
2019-03-20T12:32:50.634Z,22016
2019-03-20T12:33:50.690Z,21856
2019-03-20T12:34:50.598Z,22368
2019-03-20T12:35:50.601Z,23008
2019-03-20T12:36:50.566Z,23648
2019-03-20T12:37:50.560Z,23904
2019-03-20T12:38:50.653Z,23584
2019-03-20T12:40:00.139Z,23648
2019-03-20T12:40:50.523Z,23456
2019-03-20T12:41:50.498Z,23424
2019-03-20T12:42:50.488Z,23968
2019-03-20T12:43:52.561Z,24160
2019-03-20T12:44:50.459Z,23488
2019-03-20T12:45:50.458Z,22592
2019-03-20T12:46:50.434Z,21728
2019-03-20T12:47:50.419Z,21024
2019-03-20T12:48:50.402Z,20672
2019-03-20T12:49:50.387Z,20928
2019-03-20T12:50:50.415Z,21472
2019-03-20T12:51:50.370Z,22016
2019-03-20T12:52:50.339Z,22496
2019-03-20T12:53:50.336Z,22624
2019-03-20T12:54:50.313Z,22400
2019-03-20T12:55:50.352Z,22112
2019-03-20T12:56:50.283Z,21728
2019-03-20T12:57:50.266Z,20928
2019-03-20T12:58:50.242Z,19808
2019-03-20T12:59:50.266Z,18720
2019-03-20T13:00:49.694Z,18048
2019-03-20T13:01:50.201Z,17888
2019-03-20T13:02:50.181Z,18176
2019-03-20T13:03:50.163Z,18624
2019-03-20T13:04:50.154Z,19136
2019-03-20T13:05:50.144Z,19584
2019-03-20T13:06:49.907Z,20064
2019-03-20T13:07:50.116Z,20480
2019-03-20T13:08:50.093Z,20864
2019-03-20T13:09:50.086Z,21056
2019-03-20T13:10:50.070Z,21024
2019-03-20T13:11:50.053Z,20832
2019-03-20T13:12:50.045Z,20864
2019-03-20T13:13:50.031Z,21152
2019-03-20T13:14:50.012Z,21472
2019-03-20T13:15:49.989Z,21696
2019-03-20T13:16:49.976Z,21856
2019-03-20T13:17:49.959Z,21696
2019-03-20T13:18:50.004Z,21312
2019-03-20T13:19:50.024Z,20896
2019-03-20T13:20:49.717Z,20640
2019-03-20T13:21:52.304Z,20384
2019-03-20T13:22:51.621Z,19904
2019-03-20T13:23:49.866Z,19168
2019-03-20T13:24:49.856Z,18592
2019-03-20T13:25:49.846Z,18400
2019-03-20T13:26:49.825Z,18240
2019-03-20T13:27:49.810Z,17984
2019-03-20T13:28:49.798Z,17632
2019-03-20T13:29:49.783Z,16932
2019-03-20T13:30:51.357Z,16256
2019-03-20T13:31:49.746Z,15608
2019-03-20T13:32:49.725Z,14996
2019-03-20T13:33:51.579Z,14580
2019-03-20T13:34:49.699Z,14572
2019-03-20T13:35:49.688Z,14664
2019-03-20T13:36:52.102Z,14828
2019-03-20T13:37:49.648Z,15000
2019-03-20T13:38:49.638Z,15180